Bernard A — TCWN3 — position and weather

sailwx.info

Track history (hours):
 
Tides and Currents Weather Stations Pressure Air Temp Water Temp Dewpoint Dewpoint Depression Visibility Wind Speed Wind Dir Waves Ship Positions

Bernard A

Last reported at 2016-Apr-29 07:28 UTC. Time now 2016-May-03 14:28 UTC.
Position N 41°01' E 028°60'.

Length 184 m; draft 7.8 m.

Type: Ship (hazmat cat A). MMSI: 271040008.

Date/timePositionNaut miles runAvg speedWind from/ knotsBaromVisibWave heightAir tempDewpointWater temp
2016-Apr-29 07:28N 41°01' E 028°60'8 8.9
2016-Apr-29 06:32N 40°53' E 028°55'6 6.3
2016-Apr-29 05:31N 40°49' E 028°49'1 0.6
2016-Apr-29 04:33N 40°49' E 028°50'1 0.5
2016-Apr-29 03:33N 40°49' E 028°50'3 3.1
2016-Apr-29 02:33N 40°50' E 028°46'  
2016-Apr-25 20:07N 40°25' E 029°05'0 0.0
2016-Apr-25 19:31N 40°25' E 029°05'0 0.0
2016-Apr-25 18:13N 40°25' E 029°05'0 0.0
2016-Apr-25 17:31N 40°25' E 029°05'0 0.0
2016-Apr-25 16:31N 40°25' E 029°05'0 0.0
2016-Apr-25 14:26N 40°25' E 029°05'2 2.2
2016-Apr-25 13:33N 40°26' E 029°03'23 7.4
2016-Apr-25 10:27N 40°43' E 028°43'1112.1
2016-Apr-25 09:33N 40°54' E 028°42'3 0.1
2016-Apr-23 22:33N 40°57' E 028°40'1111.2
2016-Apr-23 21:32N 40°57' E 028°55'  
2016-Apr-20 16:33N 42°36' E 038°45'  
Track history (hours):
 
Tides and Currents Weather Stations Pressure Air Temp Water Temp Dewpoint Dewpoint Depression Visibility Wind Speed Wind Dir Waves Ship Positions

Bernard A

Last reported at 2016-Apr-29 07:28 UTC. Time now 2016-May-03 14:28 UTC.
Position N 41°01' E 028°60'.

Length 184 m; draft 7.8 m.

Type: Ship (hazmat cat A). MMSI: 271040008.

Date/timePositionNaut miles runAvg speedWind from/ knotsBaromVisibWave heightAir tempDewpointWater temp
2016-Apr-29 07:28N 41°01' E 028°60'8 8.9
2016-Apr-29 06:32N 40°53' E 028°55'6 6.3
2016-Apr-29 05:31N 40°49' E 028°49'1 0.6
2016-Apr-29 04:33N 40°49' E 028°50'1 0.5
2016-Apr-29 03:33N 40°49' E 028°50'3 3.1
2016-Apr-29 02:33N 40°50' E 028°46'  
2016-Apr-25 20:07N 40°25' E 029°05'0 0.0
2016-Apr-25 19:31N 40°25' E 029°05'0 0.0
2016-Apr-25 18:13N 40°25' E 029°05'0 0.0
2016-Apr-25 17:31N 40°25' E 029°05'0 0.0
2016-Apr-25 16:31N 40°25' E 029°05'0 0.0
2016-Apr-25 14:26N 40°25' E 029°05'2 2.2
2016-Apr-25 13:33N 40°26' E 029°03'23 7.4
2016-Apr-25 10:27N 40°43' E 028°43'1112.1
2016-Apr-25 09:33N 40°54' E 028°42'3 0.1
2016-Apr-23 22:33N 40°57' E 028°40'1111.2
2016-Apr-23 21:32N 40°57' E 028°55'  
2016-Apr-20 16:33N 42°36' E 038°45'  

Dump ship's entire track history